Ibapah, Utah
Current Conditions -  °F | °C
As of 12:55 AM on Sunday 26 Oct 2014 (Local Time) from KENV Reporting Station
Scattered Clouds Scattered Clouds  
Wind Chill: 59°   Ceiling: Unl
Heat Index: 59°   Visibility: 10mi
Dew Point: 28°   Wind: 13mph
Humidity: 31%   Direction: 290°WNW
Pressure: 29.94"   Gusts: NA
Location:  40.04°N, 113.99°W
Report Text: KENV 260655Z AUTO 29011KT 10SM SCT038 15/M02 A2994 RMK AO1
Loading
Personal Weather Stations






























Interactive Weather Map
Tropical Storm Tracking
New forecast layout! Learn more

10-Day Weather Forecast

Advertisements
Track Severe Weather on mobile